Time;durP1;ratioP1;P1;durP2;ratioP2;P2;SDS_P1;SDS_P2;PMS_P1;PMS_P2;Temp;Humidity;BMP_temperature;BMP_pressure;BME280_temperature;BME280_humidity;BME280_pressure;Samples;Min_cycle;Max_cycle;Signal;HPM_P1;HPM_P2
2021/09/15 00:01:11;;;;;;;5.83;4.47;;;;;;;;;;5099234;28;20917;-71
2021/09/15 00:03:41;;;;;;;5.93;3.53;;;;;;;;;;5099158;28;20431;-71
2021/09/15 00:06:09;;;;;;;6.00;4.20;;;;;;;;;;5099278;28;20467;-71
2021/09/15 00:08:36;;;;;;;4.33;3.93;;;;;;;;;;5099238;28;20627;-71
2021/09/15 00:11:04;;;;;;;5.23;4.67;;;;;;;;;;5098856;28;20463;-71
2021/09/15 00:13:32;;;;;;;5.37;3.93;;;;;;;;;;5098215;28;20557;-71
2021/09/15 00:16:00;;;;;;;5.50;4.20;;;;;;;;;;5098489;28;20469;-71
2021/09/15 00:18:28;;;;;;;6.23;4.63;;;;;;;;;;5097932;28;20451;-70
2021/09/15 00:21:00;;;;;;;5.30;3.90;;;;;;;;;;5098184;28;20566;-70
2021/09/15 00:23:28;;;;;;;4.80;4.03;;;;;;;;;;5097738;28;20521;-71
2021/09/15 00:25:56;;;;;;;4.87;4.27;;;;;;;;;;5098449;28;20969;-70
2021/09/15 00:28:24;;;;;;;16.10;4.67;;;;;;;;;;5097988;28;20444;-70
2021/09/15 00:30:52;;;;;;;7.40;4.10;;;;;;;;;;5098253;28;20457;-71
2021/09/15 00:33:19;;;;;;;4.53;3.53;;;;;;;;;;5097708;28;20454;-70
2021/09/15 00:35:47;;;;;;;6.60;4.30;;;;;;;;;;5097912;28;20970;-70
2021/09/15 00:38:17;;;;;;;6.70;4.30;;;;;;;;;;5098222;28;20570;-70
2021/09/15 00:40:44;;;;;;;4.37;3.90;;;;;;;;;;5097668;28;20733;-70
2021/09/15 00:43:12;;;;;;;5.10;4.60;;;;;;;;;;5098325;28;20525;-70
2021/09/15 00:45:43;;;;;;;7.33;3.97;;;;;;;;;;5097217;28;20486;-70
2021/09/15 00:48:11;;;;;;;6.33;4.57;;;;;;;;;;5097219;28;20455;-71
2021/09/15 00:50:39;;;;;;;5.07;3.93;;;;;;;;;;5098227;28;20475;-71
2021/09/15 00:53:10;;;;;;;9.03;4.40;;;;;;;;;;5097495;28;20558;-71
2021/09/15 00:55:39;;;;;;;6.30;4.90;;;;;;;;;;5096907;28;20487;-71
2021/09/15 00:58:07;;;;;;;5.67;4.47;;;;;;;;;;5097391;28;20463;-70
2021/09/15 01:00:35;;;;;;;7.40;4.40;;;;;;;;;;5097608;28;20468;-70
2021/09/15 01:03:03;;;;;;;5.30;4.10;;;;;;;;;;5098575;27;20452;-71
2021/09/15 01:05:31;;;;;;;5.27;4.10;;;;;;;;;;5097612;28;20478;-72
2021/09/15 01:07:59;;;;;;;5.83;4.13;;;;;;;;;;5098171;28;20490;-69
2021/09/15 01:10:28;;;;;;;6.63;4.30;;;;;;;;;;5097163;28;20562;-70
2021/09/15 01:12:57;;;;;;;6.70;4.07;;;;;;;;;;5097593;28;20466;-71
2021/09/15 01:15:25;;;;;;;4.30;3.90;;;;;;;;;;5098375;28;20587;-71
2021/09/15 01:17:53;;;;;;;7.30;4.70;;;;;;;;;;5097824;28;20475;-70
2021/09/15 01:20:21;;;;;;;5.80;4.23;;;;;;;;;;5097723;28;20462;-70
2021/09/15 01:22:50;;;;;;;5.60;4.70;;;;;;;;;;5097829;28;20954;-70
2021/09/15 01:25:19;;;;;;;6.10;4.60;;;;;;;;;;5097564;28;20463;-70
2021/09/15 01:27:46;;;;;;;9.23;5.00;;;;;;;;;;5096668;28;20736;-71
2021/09/15 01:30:17;;;;;;;5.83;5.17;;;;;;;;;;5096571;28;20533;-70
2021/09/15 01:32:45;;;;;;;6.80;4.50;;;;;;;;;;5096615;28;20458;-70
2021/09/15 01:35:13;;;;;;;6.50;4.97;;;;;;;;;;5096700;28;20495;-71
2021/09/15 01:37:41;;;;;;;6.70;4.87;;;;;;;;;;5096559;28;20558;-70
2021/09/15 01:40:11;;;;;;;7.57;5.17;;;;;;;;;;5096992;28;20899;-71
2021/09/15 01:42:39;;;;;;;6.00;5.40;;;;;;;;;;5096536;28;20440;-70
2021/09/15 01:45:07;;;;;;;7.27;5.40;;;;;;;;;;5097467;28;20448;-70
2021/09/15 01:47:35;;;;;;;6.43;5.20;;;;;;;;;;5097091;28;20489;-71
2021/09/15 01:50:03;;;;;;;6.40;5.60;;;;;;;;;;5097591;28;20511;-71
2021/09/15 01:52:31;;;;;;;6.30;4.87;;;;;;;;;;5096440;28;20459;-70
2021/09/15 01:54:59;;;;;;;7.57;5.00;;;;;;;;;;5096576;28;20495;-70
2021/09/15 01:57:28;;;;;;;8.67;5.10;;;;;;;;;;5096610;28;20473;-70
2021/09/15 01:59:57;;;;;;;9.43;5.50;;;;;;;;;;5096566;28;20478;-70
2021/09/15 02:02:25;;;;;;;8.17;5.90;;;;;;;;;;5096788;28;20451;-70
2021/09/15 02:04:53;;;;;;;6.50;5.30;;;;;;;;;;5096855;28;20459;-70
2021/09/15 02:07:20;;;;;;;6.93;5.20;;;;;;;;;;5097621;28;20856;-70
2021/09/15 02:09:48;;;;;;;10.43;5.23;;;;;;;;;;5096866;28;20745;-71
2021/09/15 02:12:16;;;;;;;10.33;6.17;;;;;;;;;;5096612;28;21031;-71
2021/09/15 02:14:45;;;;;;;8.27;6.40;;;;;;;;;;5097333;28;20923;-71
2021/09/15 02:17:13;;;;;;;6.70;5.83;;;;;;;;;;5097029;28;20517;-71
2021/09/15 02:19:41;;;;;;;9.50;6.20;;;;;;;;;;5097096;28;20533;-70
2021/09/15 02:22:09;;;;;;;13.77;5.67;;;;;;;;;;5096846;28;20521;-70
2021/09/15 02:24:36;;;;;;;6.40;5.80;;;;;;;;;;5095368;28;20467;-71
2021/09/15 02:27:05;;;;;;;5.90;5.30;;;;;;;;;;5095950;28;20451;-70
2021/09/15 02:29:35;;;;;;;8.30;6.00;;;;;;;;;;5096244;28;20931;-70
2021/09/15 02:32:04;;;;;;;8.27;6.40;;;;;;;;;;5097039;28;20447;-71
2021/09/15 02:34:32;;;;;;;6.90;5.43;;;;;;;;;;5095630;28;20766;-70
2021/09/15 02:37:00;;;;;;;9.83;6.10;;;;;;;;;;5096022;28;20479;-70
2021/09/15 02:39:28;;;;;;;6.17;5.57;;;;;;;;;;5096129;28;20463;-70
2021/09/15 02:41:56;;;;;;;6.30;5.50;;;;;;;;;;5096249;28;20452;-70
2021/09/15 02:44:24;;;;;;;7.53;5.27;;;;;;;;;;5095484;28;20935;-70
2021/09/15 02:46:51;;;;;;;9.43;6.10;;;;;;;;;;5096184;28;20743;-70
2021/09/15 02:49:26;;;;;;;8.10;6.07;;;;;;;;;;5096089;28;20486;-70
2021/09/15 02:51:54;;;;;;;7.00;5.50;;;;;;;;;;5095642;28;20548;-70
2021/09/15 02:54:22;;;;;;;8.27;6.07;;;;;;;;;;5095770;28;20526;-71
2021/09/15 02:56:50;;;;;;;11.63;6.47;;;;;;;;;;5096288;28;20447;-71
2021/09/15 02:59:18;;;;;;;7.90;6.37;;;;;;;;;;5095749;28;20464;-71
2021/09/15 03:01:46;;;;;;;7.87;6.20;;;;;;;;;;5095971;28;20458;-71
2021/09/15 03:04:14;;;;;;;8.57;5.63;;;;;;;;;;5077332;28;20459;-71
2021/09/15 03:06:44;;;;;;;7.40;6.40;;;;;;;;;;5095561;28;20742;-71
2021/09/15 03:09:11;;;;;;;8.90;8.00;;;;;;;;;;5094867;28;20475;-71
2021/09/15 03:11:39;;;;;;;8.43;6.27;;;;;;;;;;5095863;28;20483;-71
2021/09/15 03:14:07;;;;;;;10.00;6.37;;;;;;;;;;5095897;28;20467;-71
2021/09/15 03:16:35;;;;;;;8.63;6.33;;;;;;;;;;5096040;28;20488;-71
2021/09/15 03:19:03;;;;;;;8.30;6.30;;;;;;;;;;5096261;28;20490;-71
2021/09/15 03:21:31;;;;;;;7.53;6.53;;;;;;;;;;5096290;28;20836;-71
2021/09/15 03:24:03;;;;;;;9.23;6.13;;;;;;;;;;5098075;28;20455;-71
2021/09/15 03:26:30;;;;;;;9.20;6.23;;;;;;;;;;5099870;28;20455;-71
2021/09/15 03:28:58;;;;;;;7.00;6.30;;;;;;;;;;5098566;28;20463;-71
2021/09/15 03:31:26;;;;;;;7.60;6.27;;;;;;;;;;5098251;28;20731;-71
2021/09/15 03:33:57;;;;;;;11.03;6.43;;;;;;;;;;5097955;28;20486;-73
2021/09/15 03:36:28;;;;;;;7.47;6.37;;;;;;;;;;5099505;28;20577;-73
2021/09/15 03:38:56;;;;;;;9.47;6.30;;;;;;;;;;5099313;28;20462;-71
2021/09/15 03:41:26;;;;;;;8.33;6.37;;;;;;;;;;5098777;28;20625;-71
2021/09/15 03:43:54;;;;;;;7.90;6.13;;;;;;;;;;5097455;28;20901;-71
2021/09/15 03:46:22;;;;;;;9.53;6.87;;;;;;;;;;5098327;28;20447;-71
2021/09/15 03:48:49;;;;;;;10.43;7.30;;;;;;;;;;5098437;28;20542;-71
2021/09/15 03:51:17;;;;;;;7.47;6.83;;;;;;;;;;5098365;28;20525;-71
2021/09/15 03:53:45;;;;;;;9.80;6.13;;;;;;;;;;5098725;28;20867;-71
2021/09/15 03:56:13;;;;;;;8.00;6.90;;;;;;;;;;5099155;28;20513;-71
2021/09/15 03:58:42;;;;;;;7.53;6.63;;;;;;;;;;5099169;28;20447;-71
2021/09/15 04:01:11;;;;;;;7.27;6.30;;;;;;;;;;5099505;28;20515;-71
2021/09/15 04:03:39;;;;;;;11.87;8.40;;;;;;;;;;5098593;28;20483;-71
2021/09/15 04:06:06;;;;;;;7.70;6.50;;;;;;;;;;5097718;28;20481;-71
2021/09/15 04:08:35;;;;;;;7.80;6.33;;;;;;;;;;5097225;28;20731;-71
2021/09/15 04:11:06;;;;;;;8.10;6.40;;;;;;;;;;5099267;28;20550;-72
2021/09/15 04:13:34;;;;;;;8.70;6.70;;;;;;;;;;5097913;28;20486;-71
2021/09/15 04:16:03;;;;;;;11.40;6.80;;;;;;;;;;5098163;28;20491;-70
2021/09/15 04:18:31;;;;;;;8.80;7.00;;;;;;;;;;5098394;28;20462;-71
2021/09/15 04:20:59;;;;;;;7.23;6.33;;;;;;;;;;5097816;28;20525;-71
2021/09/15 04:23:30;;;;;;;6.77;6.07;;;;;;;;;;5098389;28;20458;-70
2021/09/15 04:31:32;;;;;;;6.80;5.80;;;;;;;;;;5096378;28;20427;-71
2021/09/15 04:34:00;;;;;;;7.83;5.83;;;;;;;;;;5097203;28;20840;-71
2021/09/15 04:36:28;;;;;;;8.00;6.37;;;;;;;;;;5097570;28;20758;-71
2021/09/15 04:38:56;;;;;;;7.70;6.60;;;;;;;;;;5096807;28;20612;-72
2021/09/15 04:41:24;;;;;;;9.80;8.20;;;;;;;;;;5097533;28;20448;-71
2021/09/15 04:43:52;;;;;;;8.17;6.20;;;;;;;;;;5096973;28;20448;-71
2021/09/15 04:46:23;;;;;;;8.77;6.47;;;;;;;;;;5097286;28;20467;-71
2021/09/15 04:48:54;;;;;;;13.17;7.03;;;;;;;;;;5097481;28;20521;-71
2021/09/15 04:51:22;;;;;;;10.57;7.10;;;;;;;;;;5097615;28;20510;-71
2021/09/15 04:53:51;;;;;;;9.23;7.17;;;;;;;;;;5097602;28;20452;-71
2021/09/15 04:56:18;;;;;;;8.97;6.27;;;;;;;;;;5097501;28;20474;-71
2021/09/15 04:58:46;;;;;;;8.57;7.30;;;;;;;;;;5097496;28;20529;-71
2021/09/15 05:01:14;;;;;;;11.63;7.33;;;;;;;;;;5096159;28;20883;-71
2021/09/15 05:03:42;;;;;;;7.03;6.20;;;;;;;;;;5096305;28;20452;-71
2021/09/15 05:06:12;;;;;;;7.40;6.60;;;;;;;;;;5096421;28;20588;-70
2021/09/15 05:08:40;;;;;;;8.73;6.20;;;;;;;;;;5096790;28;20467;-70
2021/09/15 05:11:08;;;;;;;8.93;7.17;;;;;;;;;;5097342;28;21193;-70
2021/09/15 05:13:36;;;;;;;7.97;7.17;;;;;;;;;;5096206;28;20452;-70
2021/09/15 05:16:04;;;;;;;10.27;7.43;;;;;;;;;;5095699;28;20757;-71
2021/09/15 05:18:32;;;;;;;10.80;7.67;;;;;;;;;;5096668;28;20451;-70
2021/09/15 05:21:00;;;;;;;8.27;7.40;;;;;;;;;;5095615;28;20464;-70
2021/09/15 05:23:29;;;;;;;8.80;6.50;;;;;;;;;;5095197;28;20527;-70
2021/09/15 05:25:57;;;;;;;10.03;7.23;;;;;;;;;;5094868;28;20536;-71
2021/09/15 05:28:25;;;;;;;9.37;6.90;;;;;;;;;;5094385;28;20926;-71
2021/09/15 05:30:53;;;;;;;10.83;6.73;;;;;;;;;;5094711;28;20471;-71
2021/09/15 05:33:20;;;;;;;9.00;6.90;;;;;;;;;;5093684;28;20749;-71
2021/09/15 05:35:49;;;;;;;12.43;7.43;;;;;;;;;;5092627;28;20482;-70
2021/09/15 05:38:18;;;;;;;11.23;7.83;;;;;;;;;;5093159;28;20447;-70
2021/09/15 05:40:47;;;;;;;12.17;7.90;;;;;;;;;;5084015;28;20461;-71
2021/09/15 05:43:18;;;;;;;9.33;7.23;;;;;;;;;;5074439;28;20912;-71
2021/09/15 05:45:46;;;;;;;9.53;7.23;;;;;;;;;;5072683;28;20519;-71
2021/09/15 05:48:23;;;;;;;17.43;7.87;;;;;;;;;;5073974;28;20541;-71
2021/09/15 05:50:54;;;;;;;12.13;6.50;;;;;;;;;;5074644;28;20562;-70
2021/09/15 05:53:25;;;;;;;9.70;6.93;;;;;;;;;;5091153;28;20448;-71
2021/09/15 05:55:58;;;;;;;8.40;6.87;;;;;;;;;;5094507;28;20491;-71
2021/09/15 05:58:26;;;;;;;9.23;6.00;;;;;;;;;;5094998;28;20535;-72
2021/09/15 06:00:54;;;;;;;7.80;5.70;;;;;;;;;;5094357;28;20527;-70
2021/09/15 06:03:22;;;;;;;11.40;7.80;;;;;;;;;;5093594;28;20451;-70
2021/09/15 06:05:50;;;;;;;9.70;7.63;;;;;;;;;;5094064;28;20470;-70
2021/09/15 06:08:21;;;;;;;10.93;7.70;;;;;;;;;;5095012;28;20453;-71
2021/09/15 06:10:49;;;;;;;9.73;8.73;;;;;;;;;;5094281;28;20460;-71
2021/09/15 06:13:18;;;;;;;8.80;6.53;;;;;;;;;;5090145;28;20491;-72
2021/09/15 06:15:46;;;;;;;9.30;7.77;;;;;;;;;;5094064;28;20510;-72
2021/09/15 06:18:17;;;;;;;8.40;7.13;;;;;;;;;;5094455;28;20456;-72
2021/09/15 06:20:44;;;;;;;7.80;7.00;;;;;;;;;;5093582;28;20856;-70
2021/09/15 06:23:12;;;;;;;9.93;7.57;;;;;;;;;;5094785;28;20458;-71
2021/09/15 06:25:42;;;;;;;8.47;7.63;;;;;;;;;;5094143;28;20533;-72
2021/09/15 06:28:12;;;;;;;9.47;7.23;;;;;;;;;;5093853;28;20960;-71
2021/09/15 06:30:42;;;;;;;9.73;7.60;;;;;;;;;;5078299;28;20459;-70
2021/09/15 06:33:10;;;;;;;11.63;7.57;;;;;;;;;;5093912;28;20460;-72
2021/09/15 06:35:38;;;;;;;8.50;7.60;;;;;;;;;;5093324;28;20460;-71
2021/09/15 06:38:06;;;;;;;9.27;7.13;;;;;;;;;;5094177;28;20490;-70
2021/09/15 06:40:34;;;;;;;10.07;7.80;;;;;;;;;;5089390;28;20498;-71
2021/09/15 06:43:02;;;;;;;10.33;8.50;;;;;;;;;;5095076;28;20486;-71
2021/09/15 06:45:31;;;;;;;11.73;7.80;;;;;;;;;;5094534;28;20467;-72
2021/09/15 06:48:00;;;;;;;10.37;8.30;;;;;;;;;;5094874;28;20451;-71
2021/09/15 06:50:28;;;;;;;11.20;8.03;;;;;;;;;;5098515;28;20464;-72
2021/09/15 06:52:56;;;;;;;9.10;7.30;;;;;;;;;;5093331;28;20892;-72
2021/09/15 06:55:25;;;;;;;8.40;7.50;;;;;;;;;;5095935;28;20555;-72
2021/09/15 06:57:58;;;;;;;13.53;8.77;;;;;;;;;;5096930;28;20448;-71
2021/09/15 07:00:26;;;;;;;10.33;7.67;;;;;;;;;;5099011;28;20553;-71
2021/09/15 07:02:56;;;;;;;11.60;8.47;;;;;;;;;;5099122;28;20512;-72
2021/09/15 07:05:34;;;;;;;9.43;8.43;;;;;;;;;;5094148;28;20743;-71
2021/09/15 07:08:02;;;;;;;9.20;8.20;;;;;;;;;;5114804;27;20459;-72
2021/09/15 07:10:36;;;;;;;11.33;8.33;;;;;;;;;;5098174;28;20462;-71
2021/09/15 07:13:04;;;;;;;16.77;11.17;;;;;;;;;;5098085;28;20522;-71
2021/09/15 07:15:33;;;;;;;9.87;7.87;;;;;;;;;;5099136;28;20462;-71
2021/09/15 07:18:01;;;;;;;9.40;7.87;;;;;;;;;;5098714;28;20988;-71
2021/09/15 07:20:33;;;;;;;12.73;8.20;;;;;;;;;;5095590;28;20553;-71
2021/09/15 07:23:04;;;;;;;10.20;8.33;;;;;;;;;;5097575;28;20535;-71
2021/09/15 07:25:32;;;;;;;11.10;8.37;;;;;;;;;;5081150;28;20806;-70
2021/09/15 07:28:00;;;;;;;11.73;8.57;;;;;;;;;;5077687;28;20566;-70
2021/09/15 07:30:31;;;;;;;14.77;7.97;;;;;;;;;;5078201;28;21057;-71
2021/09/15 07:32:59;;;;;;;9.67;8.60;;;;;;;;;;5078496;28;20482;-71
2021/09/15 07:35:28;;;;;;;12.80;9.13;;;;;;;;;;5078699;28;20717;-72
2021/09/15 07:37:57;;;;;;;10.30;8.67;;;;;;;;;;5097637;28;20549;-71
2021/09/15 07:40:27;;;;;;;14.07;11.00;;;;;;;;;;5095620;28;20475;-72
2021/09/15 07:42:55;;;;;;;11.27;9.37;;;;;;;;;;5089665;28;20455;-71
2021/09/15 07:45:30;;;;;;;9.37;8.40;;;;;;;;;;5092057;28;20468;-71
2021/09/15 07:48:00;;;;;;;15.10;10.27;;;;;;;;;;5082184;28;20561;-71
2021/09/15 07:50:31;;;;;;;11.43;8.90;;;;;;;;;;5097656;28;21104;-70
2021/09/15 07:53:03;;;;;;;12.00;9.50;;;;;;;;;;5086711;28;20865;-72
2021/09/15 07:55:31;;;;;;;12.07;8.40;;;;;;;;;;5097134;28;20555;-71
2021/09/15 07:57:59;;;;;;;9.30;8.50;;;;;;;;;;5096795;28;20491;-72
2021/09/15 08:00:27;;;;;;;10.60;8.53;;;;;;;;;;5097421;28;20451;-70
2021/09/15 08:02:55;;;;;;;15.97;8.50;;;;;;;;;;5097327;28;20466;-71
2021/09/15 08:05:23;;;;;;;10.97;9.40;;;;;;;;;;5097162;28;20450;-71
2021/09/15 08:07:54;;;;;;;9.50;8.50;;;;;;;;;;5096694;28;21050;-71
2021/09/15 08:10:23;;;;;;;12.23;9.67;;;;;;;;;;5095854;28;20484;-71
2021/09/15 08:12:58;;;;;;;12.23;8.47;;;;;;;;;;5097159;28;20471;-71
2021/09/15 08:15:46;;;;;;;10.70;8.50;;;;;;;;;;5097744;28;20453;-71
2021/09/15 08:18:16;;;;;;;10.43;8.40;;;;;;;;;;5096457;28;20590;-71
2021/09/15 08:20:45;;;;;;;10.17;8.60;;;;;;;;;;5096194;28;20459;-70
2021/09/15 08:23:13;;;;;;;9.03;8.13;;;;;;;;;;5097858;28;20476;-71
2021/09/15 08:25:43;;;;;;;11.50;10.30;;;;;;;;;;5098276;28;20455;-71
2021/09/15 08:28:11;;;;;;;11.20;9.40;;;;;;;;;;5096041;28;20463;-72
2021/09/15 08:30:39;;;;;;;12.50;8.37;;;;;;;;;;5113163;27;20459;-71
2021/09/15 08:33:07;;;;;;;9.40;8.40;;;;;;;;;;5101735;28;20475;-72
2021/09/15 08:35:52;;;;;;;9.50;8.27;;;;;;;;;;5093737;28;20451;-71
2021/09/15 08:38:24;;;;;;;11.03;9.03;;;;;;;;;;5096665;28;20490;-70
2021/09/15 08:41:11;;;;;;;13.27;9.83;;;;;;;;;;5096315;28;20460;-71
2021/09/15 08:43:41;;;;;;;9.73;8.73;;;;;;;;;;5095484;28;20902;-71
2021/09/15 08:46:19;;;;;;;14.17;11.97;;;;;;;;;;5084054;28;20527;-71
2021/09/15 08:49:15;;;;;;;;;;;;;;;;;;;;;
2021/09/15 08:51:49;;;;;;;25.90;16.10;;;;;;;;;;5087271;28;20860;-70
2021/09/15 08:54:16;;;;;;;11.63;10.30;;;;;;;;;;5086587;28;20460;-72
2021/09/15 08:56:45;;;;;;;10.63;8.63;;;;;;;;;;5095406;28;20486;-72
2021/09/15 08:59:15;;;;;;;12.43;9.00;;;;;;;;;;5092651;28;20463;-71
2021/09/15 09:01:45;;;;;;;8.93;8.00;;;;;;;;;;5097821;28;20490;-71
2021/09/15 09:04:17;;;;;;;9.97;8.70;;;;;;;;;;5095837;28;20460;-70
2021/09/15 09:06:48;;;;;;;11.03;9.77;;;;;;;;;;5094372;28;20971;-71
2021/09/15 09:09:18;;;;;;;12.30;8.40;;;;;;;;;;5099661;27;20553;-71
2021/09/15 09:11:49;;;;;;;10.30;8.70;;;;;;;;;;5082201;28;20905;-72
2021/09/15 09:14:30;;;;;;;20.13;9.67;;;;;;;;;;5102865;28;20465;-70
2021/09/15 09:17:01;;;;;;;11.67;9.40;;;;;;;;;;5115493;27;20511;-71
2021/09/15 09:19:30;;;;;;;10.67;8.70;;;;;;;;;;5114691;27;20521;-72
2021/09/15 09:22:00;;;;;;;10.87;8.83;;;;;;;;;;5095057;28;20446;-71
2021/09/15 09:24:30;;;;;;;13.13;10.00;;;;;;;;;;5095562;28;20902;-71
2021/09/15 09:27:01;;;;;;;9.77;8.30;;;;;;;;;;5092933;28;20523;-73
2021/09/15 09:29:31;;;;;;;9.73;8.60;;;;;;;;;;5090721;28;20459;-72
2021/09/15 09:32:03;;;;;;;10.37;8.93;;;;;;;;;;5095242;28;20463;-71
2021/09/15 09:34:31;;;;;;;12.27;8.20;;;;;;;;;;5095157;28;20558;-72
2021/09/15 09:37:08;;;;;;;16.53;8.90;;;;;;;;;;5094940;28;20480;-72
2021/09/15 09:39:41;;;;;;;16.00;10.17;;;;;;;;;;5095152;28;20510;-72
2021/09/15 09:42:29;;;;;;;16.10;12.17;;;;;;;;;;5095715;28;20505;-72
2021/09/15 09:45:15;;;;;;;10.87;8.77;;;;;;;;;;5097748;28;20527;-72
2021/09/15 09:47:48;;;;;;;10.87;9.73;;;;;;;;;;5092536;28;20463;-72
2021/09/15 09:50:17;;;;;;;11.20;10.00;;;;;;;;;;5090900;28;20448;-70
2021/09/15 09:52:59;;;;;;;14.07;9.67;;;;;;;;;;5094890;28;20513;-71
2021/09/15 09:55:28;;;;;;;12.40;9.63;;;;;;;;;;5093846;28;20438;-71
2021/09/15 09:57:58;;;;;;;12.90;9.87;;;;;;;;;;5092765;28;20480;-70
2021/09/15 10:00:28;;;;;;;13.40;10.17;;;;;;;;;;5095334;28;20820;-70
2021/09/15 10:02:56;;;;;;;12.40;10.73;;;;;;;;;;5097852;28;20459;-70
2021/09/15 10:05:29;;;;;;;11.40;10.17;;;;;;;;;;5115563;27;20852;-71
2021/09/15 10:08:01;;;;;;;15.37;10.57;;;;;;;;;;5107431;27;20543;-71
2021/09/15 10:10:29;;;;;;;11.80;10.30;;;;;;;;;;5083540;28;20455;-72
2021/09/15 10:12:57;;;;;;;13.07;9.60;;;;;;;;;;5074334;28;20559;-72
2021/09/15 10:15:25;;;;;;;24.37;21.33;;;;;;;;;;5074761;28;20453;-71
2021/09/15 10:17:56;;;;;;;16.20;11.70;;;;;;;;;;5075445;28;20484;-71
2021/09/15 10:20:26;;;;;;;16.43;10.97;;;;;;;;;;5080658;28;20462;-70
2021/09/15 10:22:54;;;;;;;11.50;8.80;;;;;;;;;;5094640;28;20447;-70
2021/09/15 10:25:35;;;;;;;12.40;9.80;;;;;;;;;;5093958;28;20455;-71
2021/09/15 10:28:06;;;;;;;12.23;9.30;;;;;;;;;;5094997;28;20518;-70
2021/09/15 10:30:48;;;;;;;11.63;8.80;;;;;;;;;;5089175;28;20868;-72
2021/09/15 10:33:37;;;;;;;11.40;10.20;;;;;;;;;;5104140;27;20786;-73
2021/09/15 10:36:28;;;;;;;13.80;11.90;;;;;;;;;;5095556;28;20452;-72
2021/09/15 10:44:36;;;;;;;12.07;9.90;;;;;;;;;;5093602;28;20498;-71
2021/09/15 10:47:17;;;;;;;9.90;8.90;;;;;;;;;;5094732;28;21063;-71
2021/09/15 10:49:49;;;;;;;13.27;10.33;;;;;;;;;;5093212;28;20554;-71
2021/09/15 10:52:25;;;;;;;11.80;9.80;;;;;;;;;;5079697;28;21061;-71
2021/09/15 10:55:25;;;;;;;10.80;9.20;;;;;;;;;;5096192;28;20455;-71
2021/09/15 10:58:18;;;;;;;12.40;9.40;;;;;;;;;;5093488;28;20513;-72
2021/09/15 11:00:50;;;;;;;12.57;9.17;;;;;;;;;;5098041;28;20482;-72
2021/09/15 11:03:32;;;;;;;13.63;8.33;;;;;;;;;;5096235;28;20475;-72
2021/09/15 11:06:19;;;;;;;18.07;9.40;;;;;;;;;;5095157;28;20482;-72
2021/09/15 11:08:48;;;;;;;12.30;9.20;;;;;;;;;;5074603;28;20460;-71
2021/09/15 11:11:31;;;;;;;11.27;9.33;;;;;;;;;;5074917;28;20499;-70
2021/09/15 11:14:02;;;;;;;11.00;8.53;;;;;;;;;;5072925;28;20460;-71
2021/09/15 11:16:31;;;;;;;17.00;10.73;;;;;;;;;;5093361;28;21006;-72
2021/09/15 11:19:01;;;;;;;14.93;10.30;;;;;;;;;;5094416;28;20498;-70
2021/09/15 11:21:31;;;;;;;10.60;9.40;;;;;;;;;;5094761;28;20895;-71
2021/09/15 11:24:12;;;;;;;11.40;9.87;;;;;;;;;;5094159;28;20534;-70
2021/09/15 11:26:50;;;;;;;15.60;10.07;;;;;;;;;;5094237;28;20508;-71
2021/09/15 11:29:37;;;;;;;12.13;9.37;;;;;;;;;;5112998;27;20569;-71
2021/09/15 11:32:08;;;;;;;11.93;10.30;;;;;;;;;;5115475;27;20508;-72
2021/09/15 11:34:38;;;;;;;14.77;9.60;;;;;;;;;;5094440;28;20711;-71
2021/09/15 11:37:06;;;;;;;15.90;9.63;;;;;;;;;;5094141;28;20899;-72
2021/09/15 11:39:35;;;;;;;10.47;9.17;;;;;;;;;;5094367;28;20852;-72
2021/09/15 11:42:04;;;;;;;13.27;11.87;;;;;;;;;;5091623;28;20517;-71
2021/09/15 11:44:35;;;;;;;13.33;10.77;;;;;;;;;;5093163;27;20534;-70
2021/09/15 11:47:04;;;;;;;15.03;11.87;;;;;;;;;;5093766;28;20680;-72
2021/09/15 11:49:39;;;;;;;12.50;10.20;;;;;;;;;;5095703;28;20567;-71
2021/09/15 11:52:10;;;;;;;16.70;11.67;;;;;;;;;;5099733;28;20461;-72
2021/09/15 11:54:38;;;;;;;16.27;11.60;;;;;;;;;;5117745;27;20835;-71
2021/09/15 11:57:09;;;;;;;13.63;10.33;;;;;;;;;;5096311;28;20444;-71
2021/09/15 11:59:37;;;;;;;19.20;11.70;;;;;;;;;;5097298;28;20464;-71
2021/09/15 12:02:06;;;;;;;17.33;12.20;;;;;;;;;;5096116;28;20477;-71
2021/09/15 12:04:38;;;;;;;15.30;12.77;;;;;;;;;;5095163;28;20555;-71
2021/09/15 12:07:22;;;;;;;15.37;11.93;;;;;;;;;;5093893;28;20470;-71
2021/09/15 12:09:53;;;;;;;16.80;11.80;;;;;;;;;;5088579;28;20463;-71
2021/09/15 12:12:21;;;;;;;17.20;12.90;;;;;;;;;;5080193;28;21124;-71
2021/09/15 12:14:51;;;;;;;13.93;12.30;;;;;;;;;;5096146;28;21105;-72
2021/09/15 12:17:23;;;;;;;14.60;13.10;;;;;;;;;;5091117;28;20456;-70
2021/09/15 12:19:57;;;;;;;18.33;12.83;;;;;;;;;;5097498;28;20474;-71
2021/09/15 12:22:28;;;;;;;16.37;13.00;;;;;;;;;;5093041;28;20453;-72
2021/09/15 12:25:00;;;;;;;15.57;12.17;;;;;;;;;;5078214;28;20465;-71
2021/09/15 12:27:28;;;;;;;17.90;12.83;;;;;;;;;;5076226;28;20452;-72
2021/09/15 12:30:00;;;;;;;17.30;12.70;;;;;;;;;;5095045;28;20928;-72
2021/09/15 12:32:33;;;;;;;17.10;13.90;;;;;;;;;;5089761;28;20483;-72
2021/09/15 12:35:02;;;;;;;22.80;16.37;;;;;;;;;;5083428;28;20460;-71
2021/09/15 12:37:38;;;;;;;18.90;14.67;;;;;;;;;;5086211;28;20449;-71
2021/09/15 12:40:19;;;;;;;14.60;13.07;;;;;;;;;;5085158;28;20460;-71
2021/09/15 12:43:12;;;;;;;18.10;13.97;;;;;;;;;;5076801;28;20707;-73
2021/09/15 12:45:40;;;;;;;17.23;13.87;;;;;;;;;;5080519;28;20542;-71
2021/09/15 12:48:16;;;;;;;17.50;14.80;;;;;;;;;;5096499;28;20457;-72
2021/09/15 12:50:48;;;;;;;16.50;14.70;;;;;;;;;;5088389;28;20487;-72
2021/09/15 12:53:19;;;;;;;18.20;13.70;;;;;;;;;;5078235;28;20440;-72
2021/09/15 12:55:55;;;;;;;20.00;14.37;;;;;;;;;;5085572;28;20831;-72
2021/09/15 12:58:25;;;;;;;19.47;15.97;;;;;;;;;;5096901;27;20922;-73
2021/09/15 13:00:57;;;;;;;18.63;15.47;;;;;;;;;;5085554;28;20473;-74
2021/09/15 13:03:44;;;;;;;25.87;22.00;;;;;;;;;;5095764;28;20451;-73
2021/09/15 13:06:19;;;;;;;20.50;17.30;;;;;;;;;;5095962;28;20887;-73
2021/09/15 13:08:49;;;;;;;22.13;16.73;;;;;;;;;;5093207;27;20716;-73
2021/09/15 13:11:17;;;;;;;20.57;16.77;;;;;;;;;;5092308;28;20909;-72
2021/09/15 13:13:46;;;;;;;18.80;15.73;;;;;;;;;;5089248;27;20467;-73
2021/09/15 13:16:17;;;;;;;19.90;15.87;;;;;;;;;;5086302;28;20444;-72
2021/09/15 13:18:47;;;;;;;22.60;17.20;;;;;;;;;;5075727;28;20484;-73
2021/09/15 13:21:19;;;;;;;20.23;16.27;;;;;;;;;;5088138;28;20906;-72
2021/09/15 13:23:48;;;;;;;19.27;17.17;;;;;;;;;;5093271;28;20455;-72
2021/09/15 13:26:18;;;;;;;20.23;16.37;;;;;;;;;;5094284;28;20456;-72
2021/09/15 13:28:49;;;;;;;21.60;16.87;;;;;;;;;;5095168;28;20464;-72
2021/09/15 13:31:22;;;;;;;21.53;17.00;;;;;;;;;;5090767;28;20542;-72
2021/09/15 13:33:52;;;;;;;23.83;16.90;;;;;;;;;;5085112;28;20930;-73
2021/09/15 13:36:37;;;;;;;22.30;17.40;;;;;;;;;;5080479;28;20908;-72
2021/09/15 13:39:24;;;;;;;19.80;16.43;;;;;;;;;;5079729;28;20514;-73
2021/09/15 13:41:52;;;;;;;20.17;17.27;;;;;;;;;;5096287;28;20455;-73
2021/09/15 13:44:23;;;;;;;20.70;17.17;;;;;;;;;;5095574;28;20459;-73
2021/09/15 13:47:07;;;;;;;27.30;17.77;;;;;;;;;;5094777;28;20455;-73
2021/09/15 13:49:40;;;;;;;30.30;19.33;;;;;;;;;;5095534;28;20457;-74
2021/09/15 13:52:13;;;;;;;26.33;17.53;;;;;;;;;;5094811;28;20464;-73
2021/09/15 13:54:59;;;;;;;16.77;14.90;;;;;;;;;;5095890;28;20452;-74
2021/09/15 13:57:35;;;;;;;20.30;15.00;;;;;;;;;;5095757;28;20458;-74
2021/09/15 14:00:08;;;;;;;20.90;15.27;;;;;;;;;;5095888;28;20532;-73
2021/09/15 14:02:38;;;;;;;20.43;16.67;;;;;;;;;;5095704;28;20518;-72
2021/09/15 14:05:08;;;;;;;24.30;16.00;;;;;;;;;;5094123;28;20454;-75
2021/09/15 14:07:41;;;;;;;20.30;15.87;;;;;;;;;;5094334;28;20751;-73
2021/09/15 14:10:11;;;;;;;18.10;14.67;;;;;;;;;;5095824;28;20451;-73
2021/09/15 14:12:53;;;;;;;21.00;15.77;;;;;;;;;;5097216;28;20443;-72
2021/09/15 14:15:22;;;;;;;20.80;14.87;;;;;;;;;;5087539;27;20463;-72
2021/09/15 14:18:04;;;;;;;17.20;14.00;;;;;;;;;;5094966;28;20454;-71
2021/09/15 14:20:32;;;;;;;21.10;16.87;;;;;;;;;;5099108;28;20966;-72
2021/09/15 14:23:04;;;;;;;19.60;15.63;;;;;;;;;;5094453;28;20476;-72
2021/09/15 14:25:34;;;;;;;20.40;14.20;;;;;;;;;;5093856;28;20440;-73
2021/09/15 14:28:06;;;;;;;19.70;14.53;;;;;;;;;;5095655;28;20609;-73
2021/09/15 14:30:48;;;;;;;17.30;14.10;;;;;;;;;;5095037;28;20459;-72
2021/09/15 14:33:38;;;;;;;16.10;14.40;;;;;;;;;;5074777;28;20514;-73
2021/09/15 14:39:06;;;;;;;14.70;11.20;;;;;;;;;;5106228;27;20809;-73
2021/09/15 14:41:36;;;;;;;11.93;10.57;;;;;;;;;;5113811;27;20547;-72
2021/09/15 14:44:13;;;;;;;13.57;11.03;;;;;;;;;;5114156;27;20450;-73
2021/09/15 14:46:41;;;;;;;13.03;9.63;;;;;;;;;;5093078;28;20443;-72
2021/09/15 14:49:11;;;;;;;11.23;9.50;;;;;;;;;;5094135;28;20503;-73
2021/09/15 14:51:43;;;;;;;12.30;9.47;;;;;;;;;;5089226;28;20455;-72
2021/09/15 14:57:00;;;;;;;9.13;8.13;;;;;;;;;;5082861;28;20491;-72
2021/09/15 14:59:32;;;;;;;9.80;8.57;;;;;;;;;;5082793;28;20466;-72
2021/09/15 15:02:06;;;;;;;8.00;7.20;;;;;;;;;;5084345;28;20522;-72
2021/09/15 15:04:40;;;;;;;10.53;8.37;;;;;;;;;;5095293;28;20901;-71
2021/09/15 15:07:09;;;;;;;11.73;9.50;;;;;;;;;;5097658;28;20529;-72
2021/09/15 15:09:43;;;;;;;10.27;9.03;;;;;;;;;;5084094;28;20470;-72
2021/09/15 15:12:13;;;;;;;10.20;9.20;;;;;;;;;;5073906;28;20461;-72